createdAt,value
2018-06-17T00:00:22.819Z,83.70
2018-06-17T00:02:54.029Z,84.40
2018-06-17T00:07:57.120Z,85.10
2018-06-17T00:10:28.936Z,84.10
2018-06-17T00:13:03.600Z,83.90
2018-06-17T00:15:34.213Z,84.00
2018-06-17T00:18:04.945Z,84.10
2018-06-17T00:20:39.130Z,83.80
2018-06-17T00:23:11.655Z,84.20
2018-06-17T00:25:41.914Z,84.30
2018-06-17T00:28:19.505Z,82.80
2018-06-17T00:30:59.639Z,83.40
2018-06-17T00:33:32.885Z,84.10
2018-06-17T00:36:04.253Z,82.40
2018-06-17T00:38:43.780Z,83.60
2018-06-17T00:41:22.795Z,82.90
2018-06-17T00:43:54.657Z,83.70
2018-06-17T00:46:27.704Z,83.30
2018-06-17T00:48:59.828Z,83.60
2018-06-17T00:51:31.223Z,83.40
2018-06-17T00:54:02.764Z,83.90
2018-06-17T00:56:36.836Z,83.20
2018-06-17T00:59:08.677Z,83.40
2018-06-17T01:01:40.116Z,83.30
2018-06-17T01:04:10.942Z,84.20
2018-06-17T01:06:42.409Z,82.20
2018-06-17T01:09:14.666Z,83.10
2018-06-17T01:14:16.974Z,83.30
2018-06-17T01:16:48.300Z,82.70
2018-06-17T01:19:19.984Z,83.00
2018-06-17T01:21:51.265Z,82.60
2018-06-17T01:24:23.048Z,82.80
2018-06-17T01:26:54.912Z,82.70
2018-06-17T01:29:25.301Z,82.70
2018-06-17T01:31:56.477Z,82.40
2018-06-17T01:34:30.513Z,81.50
2018-06-17T01:37:01.354Z,83.00
2018-06-17T01:39:30.936Z,81.90
2018-06-17T01:44:30.611Z,81.90
2018-06-17T01:47:00.291Z,81.20
2018-06-17T01:49:30.021Z,81.50
2018-06-17T01:51:59.995Z,80.50
2018-06-17T01:54:30.450Z,80.80
2018-06-17T01:56:59.747Z,81.20
2018-06-17T01:59:40.641Z,81.50
2018-06-17T02:02:09.866Z,82.20
2018-06-17T02:05:43.737Z,81.90
2018-06-17T02:08:18.092Z,82.00
2018-06-17T02:10:52.595Z,82.90
2018-06-17T02:13:23.295Z,83.30
2018-06-17T02:15:58.263Z,83.30
2018-06-17T02:18:28.991Z,83.30
2018-06-17T02:21:00.654Z,83.50
2018-06-17T02:23:30.591Z,83.50
2018-06-17T02:26:02.699Z,83.40
2018-06-17T02:28:33.783Z,82.70
2018-06-17T02:31:05.651Z,83.60
2018-06-17T02:33:37.331Z,83.10
2018-06-17T02:36:19.321Z,81.70
2018-06-17T02:38:51.444Z,81.70
2018-06-17T02:41:25.608Z,81.80
2018-06-17T02:43:56.164Z,81.70
2018-06-17T02:46:31.894Z,82.30
2018-06-17T02:49:38.073Z,82.20
2018-06-17T02:52:14.599Z,81.70
2018-06-17T02:54:46.434Z,81.80
2018-06-17T02:57:19.046Z,82.50
2018-06-17T02:59:48.444Z,82.70
2018-06-17T03:02:18.556Z,81.90
2018-06-17T03:04:48.381Z,82.10
2018-06-17T03:07:28.693Z,80.90
2018-06-17T03:09:59.288Z,80.60
2018-06-17T03:12:29.840Z,81.40
2018-06-17T03:15:01.132Z,81.10
2018-06-17T03:17:31.613Z,81.30
2018-06-17T03:20:02.957Z,81.90
2018-06-17T03:22:34.735Z,82.50
2018-06-17T03:25:11.449Z,82.90
2018-06-17T03:30:21.049Z,83.90
2018-06-17T03:32:56.216Z,83.10
2018-06-17T03:35:31.856Z,83.40
2018-06-17T03:38:01.643Z,84.50
2018-06-17T03:40:41.705Z,84.50
2018-06-17T03:43:11.208Z,84.30
2018-06-17T03:48:11.207Z,83.60
2018-06-17T03:50:43.323Z,83.10
2018-06-17T03:53:13.856Z,82.80
2018-06-17T03:55:48.161Z,83.40
2018-06-17T03:58:25.459Z,83.40
2018-06-17T04:01:00.762Z,83.70
2018-06-17T04:03:35.598Z,84.40
2018-06-17T04:06:09.810Z,83.60
2018-06-17T04:08:46.258Z,83.30
2018-06-17T04:11:23.644Z,83.30
2018-06-17T04:14:01.513Z,82.80
2018-06-17T04:16:32.201Z,83.30
2018-06-17T04:19:01.676Z,84.70
2018-06-17T04:21:41.139Z,84.20
2018-06-17T04:24:22.055Z,84.50
2018-06-17T04:26:56.511Z,84.40
2018-06-17T04:29:29.001Z,84.70
2018-06-17T04:32:06.358Z,84.70
2018-06-17T04:34:41.114Z,83.40
2018-06-17T04:37:16.836Z,83.00
2018-06-17T04:39:51.666Z,83.60
2018-06-17T04:42:30.984Z,83.30
2018-06-17T04:45:04.571Z,82.60
2018-06-17T04:47:44.852Z,83.60
2018-06-17T04:50:23.145Z,82.90
2018-06-17T04:52:58.648Z,83.10
2018-06-17T04:55:33.003Z,83.10
2018-06-17T04:58:06.158Z,83.70
2018-06-17T05:00:40.575Z,84.30
2018-06-17T05:03:13.457Z,83.50
2018-06-17T05:05:47.839Z,83.30
2018-06-17T05:08:24.088Z,83.70
2018-06-17T05:10:58.105Z,82.60
2018-06-17T05:13:34.059Z,82.50
2018-06-17T05:16:03.293Z,82.40
2018-06-17T05:18:32.459Z,81.60
2018-06-17T05:21:02.552Z,81.30
2018-06-17T05:23:32.547Z,81.40
2018-06-17T05:26:01.525Z,82.30
2018-06-17T05:28:30.664Z,82.60
2018-06-17T05:30:59.661Z,83.00
2018-06-17T05:33:28.709Z,83.80
2018-06-17T05:35:57.732Z,83.80
2018-06-17T05:38:26.994Z,83.60
2018-06-17T05:40:55.959Z,83.80
2018-06-17T05:43:25.107Z,83.00
2018-06-17T05:45:54.191Z,83.60
2018-06-17T05:48:23.171Z,83.10
2018-06-17T05:50:59.105Z,82.60
2018-06-17T05:53:33.699Z,82.60
2018-06-17T05:56:15.177Z,83.20
2018-06-17T05:58:56.919Z,83.50
2018-06-17T06:01:29.616Z,84.20
2018-06-17T06:03:58.593Z,84.00
2018-06-17T06:08:56.094Z,83.10
2018-06-17T06:11:25.234Z,81.70
2018-06-17T06:13:54.423Z,81.10
2018-06-17T06:16:23.407Z,80.70
2018-06-17T06:18:52.654Z,81.00
2018-06-17T06:21:21.984Z,80.40
2018-06-17T06:23:51.355Z,81.10
2018-06-17T06:26:20.463Z,79.30
2018-06-17T06:28:49.481Z,79.20
2018-06-17T06:31:18.454Z,78.60
2018-06-17T06:33:49.104Z,77.80
2018-06-17T06:36:30.707Z,76.80
2018-06-17T06:39:09.285Z,76.80
2018-06-17T06:41:38.672Z,77.20
2018-06-17T06:44:07.813Z,76.90
2018-06-17T06:46:36.794Z,73.50
2018-06-17T06:49:10.020Z,71.80
2018-06-17T06:51:46.299Z,71.60
2018-06-17T06:54:25.949Z,70.00
2018-06-17T06:57:02.242Z,69.40
2018-06-17T06:59:36.943Z,70.30
2018-06-17T07:05:10.463Z,68.20
2018-06-17T07:07:59.398Z,68.50
2018-06-17T07:10:38.994Z,69.60
2018-06-17T07:13:17.554Z,69.80
2018-06-17T07:16:00.316Z,70.70
2018-06-17T07:18:41.205Z,71.10
2018-06-17T07:21:14.814Z,71.20
2018-06-17T07:23:47.562Z,68.90
2018-06-17T07:26:32.462Z,71.20
2018-06-17T07:29:13.717Z,72.50
2018-06-17T07:31:46.727Z,68.20
2018-06-17T07:34:20.179Z,67.30
2018-06-17T07:36:53.085Z,68.20
2018-06-17T07:40:31.460Z,67.40
2018-06-17T07:43:04.800Z,69.00
2018-06-17T07:45:36.467Z,67.60
2018-06-17T07:48:11.452Z,68.10
2018-06-17T07:50:53.805Z,66.90
2018-06-17T07:53:26.418Z,66.60
2018-06-17T07:55:59.149Z,67.10
2018-06-17T07:58:30.152Z,66.40
2018-06-17T08:01:03.798Z,67.00
2018-06-17T08:03:37.824Z,67.70
2018-06-17T08:06:14.295Z,66.40
2018-06-17T08:08:50.938Z,67.20
2018-06-17T08:11:30.386Z,67.40
2018-06-17T08:14:03.994Z,66.70
2018-06-17T08:16:38.228Z,67.00
2018-06-17T08:19:12.405Z,67.10
2018-06-17T08:21:46.213Z,67.20
2018-06-17T08:24:18.900Z,66.20
2018-06-17T08:26:53.090Z,65.90
2018-06-17T08:29:29.883Z,65.90
2018-06-17T08:32:00.930Z,65.80
2018-06-17T08:37:07.231Z,65.70
2018-06-17T08:39:40.629Z,65.90
2018-06-17T08:42:12.238Z,63.20
2018-06-17T08:44:48.101Z,63.40
2018-06-17T08:47:24.239Z,63.70
2018-06-17T08:49:56.218Z,61.50
2018-06-17T08:52:28.096Z,61.00
2018-06-17T08:55:02.845Z,62.40
2018-06-17T08:57:36.022Z,60.10
2018-06-17T09:00:15.250Z,60.30
2018-06-17T09:02:47.521Z,61.30
2018-06-17T09:05:19.487Z,61.00
2018-06-17T09:07:51.055Z,61.70
2018-06-17T09:10:20.898Z,59.80
2018-06-17T09:12:53.208Z,58.20
2018-06-17T09:15:24.140Z,58.70
2018-06-17T09:17:54.485Z,58.90
2018-06-17T09:20:25.217Z,58.70
2018-06-17T09:22:56.029Z,59.10
2018-06-17T09:25:26.879Z,58.70
2018-06-17T09:27:57.481Z,59.10
2018-06-17T09:30:27.928Z,58.90
2018-06-17T09:32:59.241Z,58.90
2018-06-17T09:35:29.519Z,55.30
2018-06-17T09:38:03.602Z,56.00
2018-06-17T09:43:07.108Z,56.80
2018-06-17T09:45:37.655Z,57.10
2018-06-17T09:48:10.199Z,54.70
2018-06-17T09:50:41.920Z,54.60
2018-06-17T09:53:14.259Z,54.20
2018-06-17T09:55:45.979Z,54.60
2018-06-17T09:58:21.244Z,54.10
2018-06-17T10:00:50.382Z,53.60
2018-06-17T10:03:19.372Z,53.10
2018-06-17T10:05:51.600Z,53.80
2018-06-17T10:08:29.536Z,54.50
2018-06-17T10:11:11.590Z,54.80
2018-06-17T10:13:47.802Z,54.70
2018-06-17T10:16:20.566Z,54.00
2018-06-17T10:18:51.181Z,53.80
2018-06-17T10:21:22.634Z,53.60
2018-06-17T10:23:58.157Z,53.00
2018-06-17T10:26:34.754Z,52.70
2018-06-17T10:29:04.314Z,52.20
2018-06-17T10:31:36.649Z,51.70
2018-06-17T10:34:05.856Z,51.70
2018-06-17T10:36:38.982Z,51.60
2018-06-17T10:39:08.849Z,52.00
2018-06-17T10:41:39.089Z,51.20
2018-06-17T10:44:11.867Z,50.80
2018-06-17T10:46:41.187Z,50.20
2018-06-17T10:49:12.951Z,51.40
2018-06-17T10:51:54.567Z,50.80
2018-06-17T10:54:32.889Z,51.20
2018-06-17T10:57:13.589Z,51.20
2018-06-17T10:59:49.527Z,51.10
2018-06-17T11:02:23.116Z,49.90
2018-06-17T11:04:58.071Z,49.30
2018-06-17T11:07:27.088Z,49.30
2018-06-17T11:09:56.157Z,50.00
2018-06-17T11:12:25.286Z,50.40
2018-06-17T11:14:54.351Z,51.30
2018-06-17T11:17:34.640Z,51.90
2018-06-17T11:20:04.700Z,52.40
2018-06-17T11:22:34.998Z,50.60
2018-06-17T11:25:16.733Z,49.90
2018-06-17T11:27:54.653Z,49.50
2018-06-17T11:30:25.991Z,46.80
2018-06-17T11:32:56.466Z,45.90
2018-06-17T11:35:27.521Z,45.70
2018-06-17T11:37:59.797Z,46.00
2018-06-17T11:40:37.159Z,46.80
2018-06-17T11:43:15.379Z,47.20
2018-06-17T11:45:48.276Z,47.60
2018-06-17T11:48:28.530Z,48.00
2018-06-17T11:50:59.168Z,47.20
2018-06-17T11:53:28.576Z,48.00
2018-06-17T11:55:57.835Z,47.90
2018-06-17T12:01:02.527Z,48.10
2018-06-17T12:03:36.459Z,47.70
2018-06-17T12:06:10.878Z,47.40
2018-06-17T12:08:40.797Z,46.10
2018-06-17T12:11:15.292Z,46.10
2018-06-17T12:13:51.590Z,47.30
2018-06-17T12:16:29.713Z,48.50
2018-06-17T12:19:01.711Z,48.60
2018-06-17T12:21:30.952Z,49.90
2018-06-17T12:24:00.053Z,50.50
2018-06-17T12:26:29.447Z,50.90
2018-06-17T12:28:58.516Z,49.10
2018-06-17T12:31:28.917Z,48.90
2018-06-17T12:34:02.689Z,49.00
2018-06-17T12:36:31.950Z,50.10
2018-06-17T12:39:01.151Z,50.90
2018-06-17T12:46:36.356Z,53.20
2018-06-17T12:49:06.394Z,54.40
2018-06-17T12:51:42.148Z,55.50
2018-06-17T12:54:11.496Z,56.60
2018-06-17T12:56:40.744Z,57.40
2018-06-17T12:59:09.870Z,57.60
2018-06-17T13:01:39.115Z,57.60
2018-06-17T13:04:08.341Z,57.60
2018-06-17T13:06:41.727Z,57.10
2018-06-17T13:09:13.998Z,56.40
2018-06-17T13:11:44.374Z,57.10
2018-06-17T13:16:42.819Z,58.40
2018-06-17T13:19:11.736Z,58.50
2018-06-17T13:21:40.959Z,58.70
2018-06-17T13:24:16.658Z,59.30
2018-06-17T13:26:48.442Z,58.10
2018-06-17T13:29:17.718Z,58.60
2018-06-17T13:31:46.882Z,59.20
2018-06-17T13:34:16.028Z,59.50
2018-06-17T13:36:45.523Z,60.00
2018-06-17T13:39:14.736Z,59.90
2018-06-17T13:41:43.909Z,59.60
2018-06-17T13:44:13.166Z,59.30
2018-06-17T13:46:42.208Z,59.20
2018-06-17T13:49:11.338Z,59.30
2018-06-17T13:51:40.395Z,59.50
2018-06-17T13:54:15.129Z,59.40
2018-06-17T13:56:44.236Z,59.30
2018-06-17T13:59:13.306Z,59.40
2018-06-17T14:01:42.209Z,59.40
2018-06-17T14:04:11.269Z,59.60
2018-06-17T14:06:40.386Z,59.50
2018-06-17T14:09:10.380Z,58.60
2018-06-17T14:11:39.643Z,57.80
2018-06-17T14:16:36.999Z,55.00
2018-06-17T14:19:05.973Z,53.30
2018-06-17T14:21:34.948Z,53.50
2018-06-17T14:24:04.161Z,53.40
2018-06-17T14:26:33.160Z,53.70
2018-06-17T14:29:02.412Z,54.40
2018-06-17T14:31:35.863Z,54.90
2018-06-17T14:34:09.074Z,54.80
2018-06-17T14:39:10.514Z,55.20
2018-06-17T14:41:39.533Z,54.90
2018-06-17T14:44:13.670Z,55.50
2018-06-17T14:46:47.806Z,55.70
2018-06-17T14:49:21.802Z,56.00
2018-06-17T14:51:55.917Z,55.80
2018-06-17T14:54:25.639Z,55.70
2018-06-17T14:56:54.597Z,56.40
2018-06-17T14:59:23.940Z,56.80
2018-06-17T15:01:53.137Z,57.00
2018-06-17T15:04:22.303Z,57.30
2018-06-17T15:06:51.311Z,58.00
2018-06-17T15:09:20.246Z,57.70
2018-06-17T15:11:49.452Z,57.90
2018-06-17T15:14:18.399Z,57.80
2018-06-17T15:16:47.446Z,58.00
2018-06-17T15:21:45.017Z,58.30
2018-06-17T15:24:14.196Z,58.20
2018-06-17T15:26:43.267Z,58.60
2018-06-17T15:29:12.204Z,58.80
2018-06-17T15:31:46.403Z,58.90
2018-06-17T15:36:23.501Z,58.60
2018-06-17T15:38:54.235Z,59.10
2018-06-17T15:41:28.498Z,58.90
2018-06-17T15:43:58.928Z,59.30
2018-06-17T15:46:33.792Z,59.30
2018-06-17T15:49:02.951Z,59.00
2018-06-17T15:51:32.233Z,58.90
2018-06-17T15:54:02.325Z,59.10
2018-06-17T15:56:31.684Z,59.40
2018-06-17T15:59:03.020Z,59.50
2018-06-17T16:01:32.208Z,59.50
2018-06-17T16:04:01.229Z,57.30
2018-06-17T16:06:30.254Z,57.40
2018-06-17T16:08:59.234Z,57.60
2018-06-17T16:11:28.256Z,56.30
2018-06-17T16:14:02.407Z,54.80
2018-06-17T16:18:40.669Z,55.20
2018-06-17T16:21:10.177Z,55.30
2018-06-17T16:23:39.223Z,55.50
2018-06-17T16:26:08.180Z,55.40
2018-06-17T16:31:05.760Z,55.30
2018-06-17T16:36:03.379Z,54.60
2018-06-17T16:38:33.238Z,54.80
2018-06-17T16:41:02.214Z,53.90
2018-06-17T16:43:31.165Z,53.10
2018-06-17T16:46:01.415Z,53.20
2018-06-17T16:48:30.384Z,53.50
2018-06-17T16:51:04.561Z,54.40
2018-06-17T16:53:38.627Z,54.50
2018-06-17T16:56:14.566Z,54.80
2018-06-17T16:58:50.387Z,54.50
2018-06-17T17:01:19.264Z,54.40
2018-06-17T17:03:48.197Z,54.30
2018-06-17T17:06:17.087Z,54.60
2018-06-17T17:08:46.004Z,54.60
2018-06-17T17:11:14.821Z,54.60
2018-06-17T17:18:40.882Z,54.20
2018-06-17T17:23:52.938Z,53.80
2018-06-17T17:26:29.646Z,53.90
2018-06-17T17:28:58.789Z,54.00
2018-06-17T17:31:32.958Z,55.00
2018-06-17T17:34:11.506Z,55.30
2018-06-17T17:36:45.798Z,55.30
2018-06-17T17:39:27.976Z,55.40
2018-06-17T17:42:02.245Z,55.40
2018-06-17T17:44:35.382Z,55.00
2018-06-17T17:49:38.196Z,54.40
2018-06-17T17:52:07.118Z,54.20
2018-06-17T17:54:36.142Z,54.00
2018-06-17T17:57:05.113Z,54.10
2018-06-17T17:59:34.182Z,54.30
2018-06-17T18:02:03.194Z,54.00
2018-06-17T18:04:32.228Z,54.10
2018-06-17T18:07:01.547Z,54.20
2018-06-17T18:09:35.058Z,54.20
2018-06-17T18:12:04.339Z,54.40
2018-06-17T18:14:41.393Z,54.80
2018-06-17T18:17:12.630Z,54.60
2018-06-17T18:19:41.646Z,55.30
2018-06-17T18:22:10.661Z,55.10
2018-06-17T18:24:40.478Z,54.90
2018-06-17T18:27:14.749Z,55.30
2018-06-17T18:29:48.798Z,54.80
2018-06-17T18:32:22.957Z,54.80
2018-06-17T18:34:57.084Z,55.10
2018-06-17T18:37:26.212Z,55.00
2018-06-17T18:39:55.195Z,55.00
2018-06-17T18:42:24.150Z,55.40
2018-06-17T18:44:53.178Z,55.50
2018-06-17T18:49:54.314Z,56.00
2018-06-17T18:52:31.943Z,55.80
2018-06-17T18:55:00.907Z,55.80
2018-06-17T18:57:29.899Z,56.00
2018-06-17T19:00:03.137Z,56.00
2018-06-17T19:02:32.111Z,56.40
2018-06-17T19:05:01.152Z,56.60
2018-06-17T19:07:30.183Z,56.60
2018-06-17T19:10:06.878Z,56.60
2018-06-17T19:12:41.113Z,57.00
2018-06-17T19:15:15.423Z,56.90
2018-06-17T19:17:49.524Z,57.40
2018-06-17T19:20:26.429Z,57.50
2018-06-17T19:22:55.586Z,57.60
2018-06-17T19:25:24.586Z,57.90
2018-06-17T19:28:06.548Z,58.00
2018-06-17T19:30:49.755Z,58.10
2018-06-17T19:33:28.870Z,58.40
2018-06-17T19:36:04.986Z,58.60
2018-06-17T19:38:44.048Z,58.80
2018-06-17T19:41:25.779Z,58.90
2018-06-17T19:44:00.389Z,59.20
2018-06-17T19:46:39.976Z,59.50
2018-06-17T19:49:09.332Z,59.90
2018-06-17T19:51:43.613Z,60.50
2018-06-17T19:54:20.508Z,60.60
2018-06-17T19:56:57.581Z,61.20
2018-06-17T19:59:42.355Z,61.80
2018-06-17T20:02:11.571Z,61.90
2018-06-17T20:04:43.298Z,61.50
2018-06-17T20:07:18.309Z,61.90
2018-06-17T20:09:52.663Z,61.90
2018-06-17T20:12:28.980Z,62.80
2018-06-17T20:15:04.030Z,62.10
2018-06-17T20:17:37.869Z,62.00
2018-06-17T20:20:09.997Z,62.10
2018-06-17T20:22:45.976Z,62.60
2018-06-17T20:25:19.504Z,64.10
2018-06-17T20:27:48.539Z,65.30
2018-06-17T20:30:17.967Z,66.10
2018-06-17T20:32:52.358Z,67.30
2018-06-17T20:35:26.644Z,66.40
2018-06-17T20:38:00.868Z,64.50
2018-06-17T20:40:35.005Z,63.10
2018-06-17T20:43:09.289Z,63.30
2018-06-17T20:45:38.206Z,63.30
2018-06-17T20:48:07.129Z,63.70
2018-06-17T20:50:36.154Z,63.80
2018-06-17T20:53:05.102Z,64.30
2018-06-17T20:55:34.064Z,65.30
2018-06-17T20:58:03.034Z,67.30
2018-06-17T21:03:00.523Z,66.40
2018-06-17T21:05:29.542Z,67.00
2018-06-17T21:07:58.542Z,66.70
2018-06-17T21:10:27.508Z,67.30
2018-06-17T21:12:56.450Z,68.00
2018-06-17T21:15:33.614Z,67.60
2018-06-17T21:18:04.208Z,67.70
2018-06-17T21:20:38.485Z,67.40
2018-06-17T21:23:12.692Z,67.30
2018-06-17T21:25:46.840Z,66.30
2018-06-17T21:28:15.826Z,66.90
2018-06-17T21:30:44.828Z,65.50
2018-06-17T21:33:13.788Z,65.70
2018-06-17T21:35:42.729Z,65.50
2018-06-17T21:38:12.002Z,65.20
2018-06-17T21:40:41.123Z,65.90
2018-06-17T21:43:10.174Z,65.10
2018-06-17T21:45:38.958Z,65.40
2018-06-17T21:48:07.938Z,66.40
2018-06-17T21:50:36.957Z,65.60
2018-06-17T21:53:06.023Z,66.50
2018-06-17T21:58:10.820Z,65.60
2018-06-17T22:00:44.209Z,66.20
2018-06-17T22:03:13.116Z,66.50
2018-06-17T22:05:47.140Z,66.60
2018-06-17T22:08:23.869Z,67.00
2018-06-17T22:10:59.956Z,66.90
2018-06-17T22:13:35.763Z,68.60
2018-06-17T22:16:12.128Z,69.60
2018-06-17T22:21:26.958Z,68.60
2018-06-17T22:23:55.940Z,69.00
2018-06-17T22:26:24.934Z,69.80
2018-06-17T22:31:23.050Z,70.10
2018-06-17T22:33:52.041Z,69.70
2018-06-17T22:36:20.941Z,70.00
2018-06-17T22:38:55.669Z,72.10
2018-06-17T22:41:29.611Z,72.90
2018-06-17T22:44:00.878Z,73.70
2018-06-17T22:46:33.478Z,74.60
2018-06-17T22:49:09.237Z,75.10
2018-06-17T22:51:41.685Z,75.40
2018-06-17T22:54:21.564Z,75.50
2018-06-17T22:56:55.646Z,76.20
2018-06-17T22:59:29.726Z,76.40
2018-06-17T23:02:03.790Z,76.90
2018-06-17T23:04:37.893Z,77.20
2018-06-17T23:07:17.046Z,77.30
2018-06-17T23:09:50.088Z,77.40
2018-06-17T23:12:22.788Z,77.60
2018-06-17T23:14:57.082Z,77.80
2018-06-17T23:20:02.429Z,78.30
2018-06-17T23:22:35.406Z,78.60
2018-06-17T23:25:09.123Z,78.80
2018-06-17T23:30:11.681Z,79.00
2018-06-17T23:32:45.264Z,79.10
2018-06-17T23:35:17.468Z,79.70
2018-06-17T23:37:50.945Z,79.60
2018-06-17T23:40:21.411Z,79.70
2018-06-17T23:42:50.427Z,79.70
2018-06-17T23:45:19.354Z,79.70
2018-06-17T23:47:53.533Z,80.10
2018-06-17T23:50:27.557Z,80.00
2018-06-17T23:53:01.764Z,80.10
2018-06-17T23:55:35.863Z,79.80
2018-06-17T23:58:07.376Z,79.90
